Aviation Digital Data Service (ADDS)

Output produced by METARs form (1817 UTC 19 April 2019)
found at http://www.aviationweather.gov/metar/data/
 
Forecast for: RPVP (PUERTO PRINCESA , PH)
Text: TAF RPVP 191700Z 1918/2018 09006KT 9999 FEW019
Forecast period: 1800 UTC 19 April 2019 to 1800 UTC 20 April 2019
Forecast type: FROM: standard forecast or significant change
Winds: from the E (90 degrees) at 7 MPH (6 knots; 3.1 m/s)
Visibility: 6 or more miles 10+ km)
Ceiling: at least 12,000 feet AGL
Clouds: few clouds at 1900 feet AGL
Weather: no significant weather forecast for this period
Text: TEMPO 1918/1924 27004KT
Forecast period: 1800 UTC 19 April 2019 to 0000 UTC 20 April 2019
Forecast type: TEMPORARY: The following changes expected for less than half the time period
Winds: from the W (270 degrees) at 5 MPH (4 knots; 2.1 m/s)
Visibility: missing
Ceiling: unknown
Clouds: missing
Weather: no significant weather forecast for this period